sensor_id;sensor_type;location;lat;lon;timestamp;P1;durP1;ratioP1;P2;durP2;ratioP2
83055;SDS011;72881;43.514;1.510;2023-11-21T00:01:05;5.77;;;1.37;;
83055;SDS011;72881;43.514;1.510;2023-11-21T00:03:33;9.30;;;1.98;;
83055;SDS011;72881;43.514;1.510;2023-11-21T00:05:59;8.80;;;1.65;;
83055;SDS011;72881;43.514;1.510;2023-11-21T00:08:25;10.65;;;1.65;;
83055;SDS011;72881;43.514;1.510;2023-11-21T00:10:51;9.35;;;1.70;;
83055;SDS011;72881;43.514;1.510;2023-11-21T00:13:16;6.23;;;1.37;;
83055;SDS011;72881;43.514;1.510;2023-11-21T00:15:41;12.77;;;1.93;;
83055;SDS011;72881;43.514;1.510;2023-11-21T00:18:07;9.30;;;1.60;;
83055;SDS011;72881;43.514;1.510;2023-11-21T00:20:32;9.07;;;1.50;;
83055;SDS011;72881;43.514;1.510;2023-11-21T00:22:57;13.53;;;1.47;;
83055;SDS011;72881;43.514;1.510;2023-11-21T00:25:24;6.70;;;1.20;;
83055;SDS011;72881;43.514;1.510;2023-11-21T00:27:50;6.60;;;1.42;;
83055;SDS011;72881;43.514;1.510;2023-11-21T00:30:15;7.53;;;1.40;;
83055;SDS011;72881;43.514;1.510;2023-11-21T00:32:41;9.45;;;1.50;;
83055;SDS011;72881;43.514;1.510;2023-11-21T00:35:06;10.95;;;1.60;;
83055;SDS011;72881;43.514;1.510;2023-11-21T00:37:32;7.07;;;1.30;;
83055;SDS011;72881;43.514;1.510;2023-11-21T00:39:57;12.27;;;1.20;;
83055;SDS011;72881;43.514;1.510;2023-11-21T00:42:23;7.55;;;1.40;;
83055;SDS011;72881;43.514;1.510;2023-11-21T00:44:48;12.70;;;1.30;;
83055;SDS011;72881;43.514;1.510;2023-11-21T00:47:13;9.83;;;1.30;;
83055;SDS011;72881;43.514;1.510;2023-11-21T00:49:39;7.57;;;1.83;;
83055;SDS011;72881;43.514;1.510;2023-11-21T00:52:04;7.37;;;1.37;;
83055;SDS011;72881;43.514;1.510;2023-11-21T00:54:30;7.57;;;1.10;;
83055;SDS011;72881;43.514;1.510;2023-11-21T00:56:55;7.38;;;0.98;;
83055;SDS011;72881;43.514;1.510;2023-11-21T00:59:21;5.57;;;1.10;;
83055;SDS011;72881;43.514;1.510;2023-11-21T01:01:48;6.60;;;1.40;;
83055;SDS011;72881;43.514;1.510;2023-11-21T01:04:13;6.13;;;1.57;;
83055;SDS011;72881;43.514;1.510;2023-11-21T01:06:38;7.43;;;1.00;;
83055;SDS011;72881;43.514;1.510;2023-11-21T01:09:04;6.33;;;1.07;;
83055;SDS011;72881;43.514;1.510;2023-11-21T01:11:35;8.25;;;1.05;;
83055;SDS011;72881;43.514;1.510;2023-11-21T01:14:02;6.50;;;1.00;;
83055;SDS011;72881;43.514;1.510;2023-11-21T01:16:29;8.20;;;1.23;;
83055;SDS011;72881;43.514;1.510;2023-11-21T01:18:54;8.77;;;1.17;;
83055;SDS011;72881;43.514;1.510;2023-11-21T01:21:20;7.95;;;1.20;;
83055;SDS011;72881;43.514;1.510;2023-11-21T01:23:45;8.63;;;1.27;;
83055;SDS011;72881;43.514;1.510;2023-11-21T01:26:12;7.75;;;0.90;;
83055;SDS011;72881;43.514;1.510;2023-11-21T01:28:38;6.68;;;1.05;;
83055;SDS011;72881;43.514;1.510;2023-11-21T01:31:03;7.93;;;1.20;;
83055;SDS011;72881;43.514;1.510;2023-11-21T01:33:29;10.77;;;1.20;;
83055;SDS011;72881;43.514;1.510;2023-11-21T01:35:54;4.07;;;0.90;;
83055;SDS011;72881;43.514;1.510;2023-11-21T01:38:20;6.15;;;0.93;;
83055;SDS011;72881;43.514;1.510;2023-11-21T01:40:46;4.00;;;0.63;;
83055;SDS011;72881;43.514;1.510;2023-11-21T01:43:12;8.93;;;1.03;;
83055;SDS011;72881;43.514;1.510;2023-11-21T01:45:37;9.90;;;1.23;;
83055;SDS011;72881;43.514;1.510;2023-11-21T01:48:04;6.68;;;1.05;;
83055;SDS011;72881;43.514;1.510;2023-11-21T01:50:31;7.50;;;1.00;;
83055;SDS011;72881;43.514;1.510;2023-11-21T01:52:58;7.60;;;1.13;;
83055;SDS011;72881;43.514;1.510;2023-11-21T01:55:24;8.55;;;1.35;;
83055;SDS011;72881;43.514;1.510;2023-11-21T01:57:49;5.05;;;0.80;;
83055;SDS011;72881;43.514;1.510;2023-11-21T02:00:15;5.25;;;1.00;;
83055;SDS011;72881;43.514;1.510;2023-11-21T02:02:42;6.60;;;0.80;;
83055;SDS011;72881;43.514;1.510;2023-11-21T02:05:09;7.03;;;1.02;;
83055;SDS011;72881;43.514;1.510;2023-11-21T02:07:35;6.65;;;0.82;;
83055;SDS011;72881;43.514;1.510;2023-11-21T02:10:02;5.13;;;0.63;;
83055;SDS011;72881;43.514;1.510;2023-11-21T02:12:27;5.90;;;0.70;;
83055;SDS011;72881;43.514;1.510;2023-11-21T02:14:52;7.60;;;0.90;;
83055;SDS011;72881;43.514;1.510;2023-11-21T02:17:18;8.35;;;1.02;;
83055;SDS011;72881;43.514;1.510;2023-11-21T02:19:43;9.53;;;0.80;;
83055;SDS011;72881;43.514;1.510;2023-11-21T02:22:09;4.85;;;0.65;;
83055;SDS011;72881;43.514;1.510;2023-11-21T02:24:36;6.55;;;0.73;;
83055;SDS011;72881;43.514;1.510;2023-11-21T02:27:01;3.90;;;0.60;;
83055;SDS011;72881;43.514;1.510;2023-11-21T02:29:27;6.55;;;0.90;;
83055;SDS011;72881;43.514;1.510;2023-11-21T02:31:53;6.03;;;0.68;;
83055;SDS011;72881;43.514;1.510;2023-11-21T02:34:19;6.07;;;0.77;;
83055;SDS011;72881;43.514;1.510;2023-11-21T02:36:45;8.57;;;0.90;;
83055;SDS011;72881;43.514;1.510;2023-11-21T02:39:12;4.10;;;0.55;;
83055;SDS011;72881;43.514;1.510;2023-11-21T02:41:38;3.55;;;0.60;;
83055;SDS011;72881;43.514;1.510;2023-11-21T02:44:04;2.92;;;0.60;;
83055;SDS011;72881;43.514;1.510;2023-11-21T02:46:31;5.60;;;0.85;;
83055;SDS011;72881;43.514;1.510;2023-11-21T02:48:58;6.22;;;0.70;;
83055;SDS011;72881;43.514;1.510;2023-11-21T02:51:27;5.60;;;0.70;;
83055;SDS011;72881;43.514;1.510;2023-11-21T02:53:52;3.65;;;0.63;;
83055;SDS011;72881;43.514;1.510;2023-11-21T02:56:18;5.50;;;0.83;;
83055;SDS011;72881;43.514;1.510;2023-11-21T02:58:44;5.20;;;0.98;;
83055;SDS011;72881;43.514;1.510;2023-11-21T03:01:10;3.50;;;0.60;;
83055;SDS011;72881;43.514;1.510;2023-11-21T03:03:36;7.03;;;0.82;;
83055;SDS011;72881;43.514;1.510;2023-11-21T03:06:04;4.57;;;1.13;;
83055;SDS011;72881;43.514;1.510;2023-11-21T03:08:29;5.13;;;0.90;;
83055;SDS011;72881;43.514;1.510;2023-11-21T03:10:55;3.80;;;1.00;;
83055;SDS011;72881;43.514;1.510;2023-11-21T03:13:21;2.70;;;0.50;;
83055;SDS011;72881;43.514;1.510;2023-11-21T03:15:46;2.00;;;0.60;;
83055;SDS011;72881;43.514;1.510;2023-11-21T03:18:12;4.25;;;0.55;;
83055;SDS011;72881;43.514;1.510;2023-11-21T03:20:38;6.82;;;0.93;;
83055;SDS011;72881;43.514;1.510;2023-11-21T03:23:03;5.33;;;0.70;;
83055;SDS011;72881;43.514;1.510;2023-11-21T03:25:30;6.35;;;0.98;;
83055;SDS011;72881;43.514;1.510;2023-11-21T03:27:56;5.68;;;0.80;;
83055;SDS011;72881;43.514;1.510;2023-11-21T03:30:21;5.65;;;0.77;;
83055;SDS011;72881;43.514;1.510;2023-11-21T03:32:46;5.68;;;0.95;;
83055;SDS011;72881;43.514;1.510;2023-11-21T03:35:12;6.22;;;0.90;;
83055;SDS011;72881;43.514;1.510;2023-11-21T03:37:37;7.53;;;1.13;;
83055;SDS011;72881;43.514;1.510;2023-11-21T03:40:06;3.88;;;0.60;;
83055;SDS011;72881;43.514;1.510;2023-11-21T03:42:33;4.65;;;0.65;;
83055;SDS011;72881;43.514;1.510;2023-11-21T03:44:58;4.25;;;0.70;;
83055;SDS011;72881;43.514;1.510;2023-11-21T03:47:24;5.13;;;0.57;;
83055;SDS011;72881;43.514;1.510;2023-11-21T03:49:49;6.38;;;1.40;;
83055;SDS011;72881;43.514;1.510;2023-11-21T03:52:14;5.77;;;0.73;;
83055;SDS011;72881;43.514;1.510;2023-11-21T03:54:40;5.05;;;0.70;;
83055;SDS011;72881;43.514;1.510;2023-11-21T03:57:05;5.03;;;1.10;;
83055;SDS011;72881;43.514;1.510;2023-11-21T03:59:30;5.00;;;0.67;;
83055;SDS011;72881;43.514;1.510;2023-11-21T04:01:56;6.87;;;1.00;;
83055;SDS011;72881;43.514;1.510;2023-11-21T04:04:22;5.82;;;0.85;;
83055;SDS011;72881;43.514;1.510;2023-11-21T04:06:47;5.88;;;0.70;;
83055;SDS011;72881;43.514;1.510;2023-11-21T04:09:13;5.50;;;0.77;;
83055;SDS011;72881;43.514;1.510;2023-11-21T04:11:38;4.23;;;0.70;;
83055;SDS011;72881;43.514;1.510;2023-11-21T04:14:03;5.70;;;0.70;;
83055;SDS011;72881;43.514;1.510;2023-11-21T04:16:29;5.00;;;0.73;;
83055;SDS011;72881;43.514;1.510;2023-11-21T04:18:54;4.80;;;0.60;;
83055;SDS011;72881;43.514;1.510;2023-11-21T04:21:19;6.70;;;0.90;;
83055;SDS011;72881;43.514;1.510;2023-11-21T04:23:45;4.70;;;0.60;;
83055;SDS011;72881;43.514;1.510;2023-11-21T04:26:10;4.43;;;0.67;;
83055;SDS011;72881;43.514;1.510;2023-11-21T04:28:35;9.48;;;0.90;;
83055;SDS011;72881;43.514;1.510;2023-11-21T04:31:01;4.60;;;0.70;;
83055;SDS011;72881;43.514;1.510;2023-11-21T04:33:27;3.80;;;0.60;;
83055;SDS011;72881;43.514;1.510;2023-11-21T04:35:53;4.78;;;0.90;;
83055;SDS011;72881;43.514;1.510;2023-11-21T04:38:18;6.03;;;0.67;;
83055;SDS011;72881;43.514;1.510;2023-11-21T04:40:44;6.10;;;1.33;;
83055;SDS011;72881;43.514;1.510;2023-11-21T04:43:09;4.85;;;0.60;;
83055;SDS011;72881;43.514;1.510;2023-11-21T04:45:34;3.57;;;0.70;;
83055;SDS011;72881;43.514;1.510;2023-11-21T04:48:00;3.05;;;0.60;;
83055;SDS011;72881;43.514;1.510;2023-11-21T04:50:25;7.00;;;1.00;;
83055;SDS011;72881;43.514;1.510;2023-11-21T04:52:53;4.22;;;0.60;;
83055;SDS011;72881;43.514;1.510;2023-11-21T04:55:19;3.15;;;0.50;;
83055;SDS011;72881;43.514;1.510;2023-11-21T04:57:44;5.90;;;1.05;;
83055;SDS011;72881;43.514;1.510;2023-11-21T05:00:10;3.88;;;0.65;;
83055;SDS011;72881;43.514;1.510;2023-11-21T05:02:36;4.35;;;0.70;;
83055;SDS011;72881;43.514;1.510;2023-11-21T05:05:03;5.35;;;0.73;;
83055;SDS011;72881;43.514;1.510;2023-11-21T05:07:30;5.05;;;0.60;;
83055;SDS011;72881;43.514;1.510;2023-11-21T05:09:57;12.13;;;1.45;;
83055;SDS011;72881;43.514;1.510;2023-11-21T05:12:22;4.72;;;0.80;;
83055;SDS011;72881;43.514;1.510;2023-11-21T05:14:48;5.30;;;0.77;;
83055;SDS011;72881;43.514;1.510;2023-11-21T05:17:14;5.20;;;0.70;;
83055;SDS011;72881;43.514;1.510;2023-11-21T05:19:40;2.10;;;0.57;;
83055;SDS011;72881;43.514;1.510;2023-11-21T05:22:06;4.78;;;0.85;;
83055;SDS011;72881;43.514;1.510;2023-11-21T05:24:31;6.15;;;0.70;;
83055;SDS011;72881;43.514;1.510;2023-11-21T05:26:56;4.82;;;0.60;;
83055;SDS011;72881;43.514;1.510;2023-11-21T05:29:22;5.20;;;0.60;;
83055;SDS011;72881;43.514;1.510;2023-11-21T05:31:48;3.63;;;0.47;;
83055;SDS011;72881;43.514;1.510;2023-11-21T05:34:13;4.30;;;0.60;;
83055;SDS011;72881;43.514;1.510;2023-11-21T05:36:39;6.47;;;0.70;;
83055;SDS011;72881;43.514;1.510;2023-11-21T05:39:05;4.30;;;0.50;;
83055;SDS011;72881;43.514;1.510;2023-11-21T05:41:30;2.50;;;0.40;;
83055;SDS011;72881;43.514;1.510;2023-11-21T05:43:55;5.40;;;0.70;;
83055;SDS011;72881;43.514;1.510;2023-11-21T05:46:21;7.37;;;0.60;;
83055;SDS011;72881;43.514;1.510;2023-11-21T05:48:46;6.70;;;0.90;;
83055;SDS011;72881;43.514;1.510;2023-11-21T05:51:12;3.08;;;0.32;;
83055;SDS011;72881;43.514;1.510;2023-11-21T05:53:38;4.28;;;0.47;;
83055;SDS011;72881;43.514;1.510;2023-11-21T05:56:04;3.13;;;0.60;;
83055;SDS011;72881;43.514;1.510;2023-11-21T05:58:29;3.53;;;0.57;;
83055;SDS011;72881;43.514;1.510;2023-11-21T06:00:55;2.60;;;0.40;;
83055;SDS011;72881;43.514;1.510;2023-11-21T06:03:20;4.00;;;0.73;;
83055;SDS011;72881;43.514;1.510;2023-11-21T06:05:45;5.18;;;0.52;;
83055;SDS011;72881;43.514;1.510;2023-11-21T06:08:11;3.60;;;0.50;;
83055;SDS011;72881;43.514;1.510;2023-11-21T06:10:36;3.40;;;0.60;;
83055;SDS011;72881;43.514;1.510;2023-11-21T06:13:01;3.57;;;0.50;;
83055;SDS011;72881;43.514;1.510;2023-11-21T06:15:28;4.13;;;0.65;;
83055;SDS011;72881;43.514;1.510;2023-11-21T06:17:54;5.10;;;0.68;;
83055;SDS011;72881;43.514;1.510;2023-11-21T06:20:19;2.50;;;0.67;;
83055;SDS011;72881;43.514;1.510;2023-11-21T06:22:46;4.35;;;0.60;;
83055;SDS011;72881;43.514;1.510;2023-11-21T06:25:12;2.75;;;0.45;;
83055;SDS011;72881;43.514;1.510;2023-11-21T06:27:39;2.67;;;0.70;;
83055;SDS011;72881;43.514;1.510;2023-11-21T06:30:11;3.95;;;0.75;;
83055;SDS011;72881;43.514;1.510;2023-11-21T06:32:38;2.67;;;0.68;;
83055;SDS011;72881;43.514;1.510;2023-11-21T06:35:10;2.20;;;0.43;;
83055;SDS011;72881;43.514;1.510;2023-11-21T06:37:36;4.22;;;0.60;;
83055;SDS011;72881;43.514;1.510;2023-11-21T06:40:01;2.92;;;0.57;;
83055;SDS011;72881;43.514;1.510;2023-11-21T06:42:28;3.55;;;0.60;;
83055;SDS011;72881;43.514;1.510;2023-11-21T06:44:54;3.78;;;0.43;;
83055;SDS011;72881;43.514;1.510;2023-11-21T06:47:22;3.28;;;0.60;;
83055;SDS011;72881;43.514;1.510;2023-11-21T06:49:50;4.68;;;0.50;;
83055;SDS011;72881;43.514;1.510;2023-11-21T06:52:16;2.47;;;0.70;;
83055;SDS011;72881;43.514;1.510;2023-11-21T06:54:41;3.95;;;0.40;;
83055;SDS011;72881;43.514;1.510;2023-11-21T06:57:06;3.22;;;0.50;;
83055;SDS011;72881;43.514;1.510;2023-11-21T06:59:32;4.72;;;0.60;;
83055;SDS011;72881;43.514;1.510;2023-11-21T07:01:58;2.58;;;0.57;;
83055;SDS011;72881;43.514;1.510;2023-11-21T07:04:23;5.20;;;0.70;;
83055;SDS011;72881;43.514;1.510;2023-11-21T07:06:50;3.42;;;0.70;;
83055;SDS011;72881;43.514;1.510;2023-11-21T07:09:16;4.65;;;0.60;;
83055;SDS011;72881;43.514;1.510;2023-11-21T07:11:41;5.40;;;1.00;;
83055;SDS011;72881;43.514;1.510;2023-11-21T07:14:07;5.20;;;0.70;;
83055;SDS011;72881;43.514;1.510;2023-11-21T07:16:36;2.67;;;0.60;;
83055;SDS011;72881;43.514;1.510;2023-11-21T07:19:06;1.85;;;0.50;;
83055;SDS011;72881;43.514;1.510;2023-11-21T07:21:32;5.60;;;0.68;;
83055;SDS011;72881;43.514;1.510;2023-11-21T07:23:58;2.70;;;0.60;;
83055;SDS011;72881;43.514;1.510;2023-11-21T07:26:24;3.63;;;0.57;;
83055;SDS011;72881;43.514;1.510;2023-11-21T07:28:50;4.43;;;0.60;;
83055;SDS011;72881;43.514;1.510;2023-11-21T07:31:16;3.53;;;0.60;;
83055;SDS011;72881;43.514;1.510;2023-11-21T07:33:41;3.80;;;0.60;;
83055;SDS011;72881;43.514;1.510;2023-11-21T07:36:06;3.63;;;0.65;;
83055;SDS011;72881;43.514;1.510;2023-11-21T07:38:32;2.38;;;0.60;;
83055;SDS011;72881;43.514;1.510;2023-11-21T07:40:58;2.92;;;0.50;;
83055;SDS011;72881;43.514;1.510;2023-11-21T07:43:26;5.80;;;0.90;;
83055;SDS011;72881;43.514;1.510;2023-11-21T07:45:51;2.03;;;0.60;;
83055;SDS011;72881;43.514;1.510;2023-11-21T07:48:17;4.10;;;0.90;;
83055;SDS011;72881;43.514;1.510;2023-11-21T07:50:42;3.77;;;1.00;;
83055;SDS011;72881;43.514;1.510;2023-11-21T07:53:08;3.20;;;0.77;;
83055;SDS011;72881;43.514;1.510;2023-11-21T07:55:33;4.22;;;0.65;;
83055;SDS011;72881;43.514;1.510;2023-11-21T07:57:59;3.22;;;0.60;;
83055;SDS011;72881;43.514;1.510;2023-11-21T08:00:24;6.38;;;0.93;;
83055;SDS011;72881;43.514;1.510;2023-11-21T08:02:49;3.63;;;0.80;;
83055;SDS011;72881;43.514;1.510;2023-11-21T08:05:15;2.30;;;0.68;;
83055;SDS011;72881;43.514;1.510;2023-11-21T08:07:41;3.17;;;0.70;;
83055;SDS011;72881;43.514;1.510;2023-11-21T08:10:06;5.07;;;0.90;;
83055;SDS011;72881;43.514;1.510;2023-11-21T08:12:32;3.63;;;1.08;;
83055;SDS011;72881;43.514;1.510;2023-11-21T08:14:57;4.27;;;0.70;;
83055;SDS011;72881;43.514;1.510;2023-11-21T08:17:23;2.60;;;0.60;;
83055;SDS011;72881;43.514;1.510;2023-11-21T08:19:48;3.78;;;0.80;;
83055;SDS011;72881;43.514;1.510;2023-11-21T08:22:17;3.72;;;1.00;;
83055;SDS011;72881;43.514;1.510;2023-11-21T08:24:46;3.50;;;1.17;;
83055;SDS011;72881;43.514;1.510;2023-11-21T08:27:12;3.17;;;1.02;;
83055;SDS011;72881;43.514;1.510;2023-11-21T08:29:40;3.20;;;1.00;;
83055;SDS011;72881;43.514;1.510;2023-11-21T08:32:07;1.75;;;0.70;;
83055;SDS011;72881;43.514;1.510;2023-11-21T08:34:32;3.28;;;0.70;;
83055;SDS011;72881;43.514;1.510;2023-11-21T08:36:58;1.88;;;0.60;;
83055;SDS011;72881;43.514;1.510;2023-11-21T08:39:24;1.70;;;0.70;;
83055;SDS011;72881;43.514;1.510;2023-11-21T08:41:50;2.85;;;1.52;;
83055;SDS011;72881;43.514;1.510;2023-11-21T08:44:16;6.75;;;1.63;;
83055;SDS011;72881;43.514;1.510;2023-11-21T08:46:43;5.57;;;1.10;;
83055;SDS011;72881;43.514;1.510;2023-11-21T08:49:12;4.43;;;1.50;;
83055;SDS011;72881;43.514;1.510;2023-11-21T08:51:38;3.35;;;1.45;;
83055;SDS011;72881;43.514;1.510;2023-11-21T08:54:04;3.97;;;1.20;;
83055;SDS011;72881;43.514;1.510;2023-11-21T08:56:32;3.03;;;1.10;;
83055;SDS011;72881;43.514;1.510;2023-11-21T08:58:58;1.20;;;0.70;;
83055;SDS011;72881;43.514;1.510;2023-11-21T09:01:27;4.53;;;1.35;;
83055;SDS011;72881;43.514;1.510;2023-11-21T09:03:52;2.50;;;0.90;;
83055;SDS011;72881;43.514;1.510;2023-11-21T09:06:18;5.35;;;1.20;;
83055;SDS011;72881;43.514;1.510;2023-11-21T09:08:44;2.40;;;0.90;;
83055;SDS011;72881;43.514;1.510;2023-11-21T09:11:09;4.55;;;0.80;;
83055;SDS011;72881;43.514;1.510;2023-11-21T09:13:35;3.55;;;0.70;;
83055;SDS011;72881;43.514;1.510;2023-11-21T09:16:01;3.78;;;1.00;;
83055;SDS011;72881;43.514;1.510;2023-11-21T09:18:27;1.77;;;0.60;;
83055;SDS011;72881;43.514;1.510;2023-11-21T09:20:52;2.23;;;0.70;;
83055;SDS011;72881;43.514;1.510;2023-11-21T09:23:18;2.40;;;0.90;;
83055;SDS011;72881;43.514;1.510;2023-11-21T09:25:43;1.85;;;0.70;;
83055;SDS011;72881;43.514;1.510;2023-11-21T09:28:13;3.42;;;0.80;;
83055;SDS011;72881;43.514;1.510;2023-11-21T09:30:38;2.93;;;0.77;;
83055;SDS011;72881;43.514;1.510;2023-11-21T09:33:03;2.57;;;0.57;;
83055;SDS011;72881;43.514;1.510;2023-11-21T09:35:35;2.92;;;0.93;;
83055;SDS011;72881;43.514;1.510;2023-11-21T09:38:03;6.97;;;2.58;;
83055;SDS011;72881;43.514;1.510;2023-11-21T09:40:30;2.10;;;0.88;;
83055;SDS011;72881;43.514;1.510;2023-11-21T09:42:57;5.50;;;2.72;;
83055;SDS011;72881;43.514;1.510;2023-11-21T09:45:32;3.22;;;0.93;;
83055;SDS011;72881;43.514;1.510;2023-11-21T09:48:00;3.60;;;1.30;;
83055;SDS011;72881;43.514;1.510;2023-11-21T09:50:25;3.20;;;0.98;;
83055;SDS011;72881;43.514;1.510;2023-11-21T09:52:58;3.03;;;1.30;;
83055;SDS011;72881;43.514;1.510;2023-11-21T09:55:29;3.00;;;1.05;;
83055;SDS011;72881;43.514;1.510;2023-11-21T09:57:56;1.90;;;0.90;;
83055;SDS011;72881;43.514;1.510;2023-11-21T10:00:22;3.90;;;1.85;;
83055;SDS011;72881;43.514;1.510;2023-11-21T10:02:49;3.17;;;1.33;;
83055;SDS011;72881;43.514;1.510;2023-11-21T10:05:15;5.75;;;2.15;;
83055;SDS011;72881;43.514;1.510;2023-11-21T10:07:43;4.85;;;1.60;;
83055;SDS011;72881;43.514;1.510;2023-11-21T10:10:09;5.72;;;2.80;;
83055;SDS011;72881;43.514;1.510;2023-11-21T10:12:35;3.03;;;1.20;;
83055;SDS011;72881;43.514;1.510;2023-11-21T10:15:00;3.20;;;1.40;;
83055;SDS011;72881;43.514;1.510;2023-11-21T10:17:28;2.78;;;1.40;;
83055;SDS011;72881;43.514;1.510;2023-11-21T10:19:55;5.30;;;1.35;;
83055;SDS011;72881;43.514;1.510;2023-11-21T10:22:22;2.83;;;1.45;;
83055;SDS011;72881;43.514;1.510;2023-11-21T10:24:48;4.75;;;1.83;;
83055;SDS011;72881;43.514;1.510;2023-11-21T10:27:13;4.10;;;1.50;;
83055;SDS011;72881;43.514;1.510;2023-11-21T10:29:39;2.30;;;1.20;;
83055;SDS011;72881;43.514;1.510;2023-11-21T10:32:05;5.13;;;1.77;;
83055;SDS011;72881;43.514;1.510;2023-11-21T10:34:30;2.40;;;1.30;;
83055;SDS011;72881;43.514;1.510;2023-11-21T10:36:56;5.00;;;2.05;;
83055;SDS011;72881;43.514;1.510;2023-11-21T10:39:23;2.47;;;0.90;;
83055;SDS011;72881;43.514;1.510;2023-11-21T10:41:52;3.40;;;1.55;;
83055;SDS011;72881;43.514;1.510;2023-11-21T10:44:19;1.73;;;0.90;;
83055;SDS011;72881;43.514;1.510;2023-11-21T10:46:49;2.92;;;0.90;;
83055;SDS011;72881;43.514;1.510;2023-11-21T10:49:19;2.80;;;1.25;;
83055;SDS011;72881;43.514;1.510;2023-11-21T10:51:45;4.57;;;1.30;;
83055;SDS011;72881;43.514;1.510;2023-11-21T10:54:15;3.58;;;1.60;;
83055;SDS011;72881;43.514;1.510;2023-11-21T10:56:42;5.45;;;2.17;;
83055;SDS011;72881;43.514;1.510;2023-11-21T10:59:12;4.75;;;1.10;;
83055;SDS011;72881;43.514;1.510;2023-11-21T11:01:40;2.40;;;1.33;;
83055;SDS011;72881;43.514;1.510;2023-11-21T11:04:08;3.35;;;1.13;;
83055;SDS011;72881;43.514;1.510;2023-11-21T11:06:39;4.00;;;1.20;;
83055;SDS011;72881;43.514;1.510;2023-11-21T11:09:06;3.08;;;1.50;;
83055;SDS011;72881;43.514;1.510;2023-11-21T11:11:33;2.70;;;1.00;;
83055;SDS011;72881;43.514;1.510;2023-11-21T11:13:59;2.80;;;1.17;;
83055;SDS011;72881;43.514;1.510;2023-11-21T11:16:25;5.00;;;1.90;;
83055;SDS011;72881;43.514;1.510;2023-11-21T11:18:51;5.40;;;1.75;;
83055;SDS011;72881;43.514;1.510;2023-11-21T11:35:18;4.03;;;1.73;;
83055;SDS011;72881;43.514;1.510;2023-11-21T11:37:47;12.27;;;4.78;;
83055;SDS011;72881;43.514;1.510;2023-11-21T11:40:13;9.57;;;4.15;;
83055;SDS011;72881;43.514;1.510;2023-11-21T11:42:38;15.48;;;7.03;;
83055;SDS011;72881;43.514;1.510;2023-11-21T11:45:19;21.35;;;10.95;;
83055;SDS011;72881;43.514;1.510;2023-11-21T11:47:44;2.95;;;1.60;;
83055;SDS011;72881;43.514;1.510;2023-11-21T11:50:13;2.92;;;1.20;;
83055;SDS011;72881;43.514;1.510;2023-11-21T11:55:14;5.18;;;2.10;;
83055;SDS011;72881;43.514;1.510;2023-11-21T11:57:44;4.97;;;1.55;;
83055;SDS011;72881;43.514;1.510;2023-11-21T12:00:18;2.95;;;1.67;;
83055;SDS011;72881;43.514;1.510;2023-11-21T12:02:50;2.50;;;1.30;;
83055;SDS011;72881;43.514;1.510;2023-11-21T12:05:17;5.13;;;2.28;;
83055;SDS011;72881;43.514;1.510;2023-11-21T12:07:44;3.60;;;1.55;;
83055;SDS011;72881;43.514;1.510;2023-11-21T12:13:05;2.63;;;1.50;;
83055;SDS011;72881;43.514;1.510;2023-11-21T12:15:32;3.42;;;1.40;;
83055;SDS011;72881;43.514;1.510;2023-11-21T12:17:58;3.63;;;2.22;;
83055;SDS011;72881;43.514;1.510;2023-11-21T12:20:24;2.88;;;1.40;;
83055;SDS011;72881;43.514;1.510;2023-11-21T12:22:51;3.58;;;1.55;;
83055;SDS011;72881;43.514;1.510;2023-11-21T12:25:21;5.35;;;2.08;;
83055;SDS011;72881;43.514;1.510;2023-11-21T12:27:51;4.53;;;1.80;;
83055;SDS011;72881;43.514;1.510;2023-11-21T12:30:18;2.72;;;1.52;;
83055;SDS011;72881;43.514;1.510;2023-11-21T12:32:44;7.47;;;2.67;;
83055;SDS011;72881;43.514;1.510;2023-11-21T12:35:12;6.35;;;2.00;;
83055;SDS011;72881;43.514;1.510;2023-11-21T12:37:38;6.43;;;1.80;;
83055;SDS011;72881;43.514;1.510;2023-11-21T12:40:08;2.70;;;1.08;;
83055;SDS011;72881;43.514;1.510;2023-11-21T12:42:37;3.45;;;1.60;;
83055;SDS011;72881;43.514;1.510;2023-11-21T12:45:07;3.58;;;1.95;;
83055;SDS011;72881;43.514;1.510;2023-11-21T12:47:36;4.53;;;1.58;;
83055;SDS011;72881;43.514;1.510;2023-11-21T12:50:02;4.13;;;2.03;;
83055;SDS011;72881;43.514;1.510;2023-11-21T12:52:28;5.20;;;2.00;;
83055;SDS011;72881;43.514;1.510;2023-11-21T12:54:53;1.80;;;0.90;;
83055;SDS011;72881;43.514;1.510;2023-11-21T12:57:19;1.40;;;0.80;;
83055;SDS011;72881;43.514;1.510;2023-11-21T12:59:45;2.50;;;0.90;;
83055;SDS011;72881;43.514;1.510;2023-11-21T13:02:12;1.90;;;1.10;;
83055;SDS011;72881;43.514;1.510;2023-11-21T13:04:39;2.13;;;1.13;;
83055;SDS011;72881;43.514;1.510;2023-11-21T13:07:04;4.27;;;1.67;;
83055;SDS011;72881;43.514;1.510;2023-11-21T13:09:38;3.17;;;1.88;;
83055;SDS011;72881;43.514;1.510;2023-11-21T13:12:03;3.40;;;1.60;;
83055;SDS011;72881;43.514;1.510;2023-11-21T13:14:29;2.88;;;1.23;;
83055;SDS011;72881;43.514;1.510;2023-11-21T13:16:56;4.50;;;1.75;;
83055;SDS011;72881;43.514;1.510;2023-11-21T13:19:22;4.57;;;1.25;;
83055;SDS011;72881;43.514;1.510;2023-11-21T13:21:49;2.90;;;1.30;;
83055;SDS011;72881;43.514;1.510;2023-11-21T13:24:14;3.72;;;1.80;;
83055;SDS011;72881;43.514;1.510;2023-11-21T13:26:40;3.05;;;1.48;;
83055;SDS011;72881;43.514;1.510;2023-11-21T13:29:05;4.28;;;1.50;;
83055;SDS011;72881;43.514;1.510;2023-11-21T13:31:31;2.70;;;1.80;;
83055;SDS011;72881;43.514;1.510;2023-11-21T13:33:57;2.85;;;1.70;;
83055;SDS011;72881;43.514;1.510;2023-11-21T13:36:29;5.28;;;2.35;;
83055;SDS011;72881;43.514;1.510;2023-11-21T13:38:57;3.70;;;1.95;;
83055;SDS011;72881;43.514;1.510;2023-11-21T13:41:32;2.92;;;1.50;;
83055;SDS011;72881;43.514;1.510;2023-11-21T13:43:58;3.03;;;1.50;;
83055;SDS011;72881;43.514;1.510;2023-11-21T13:46:42;3.10;;;1.42;;
83055;SDS011;72881;43.514;1.510;2023-11-21T13:49:09;2.30;;;0.98;;
83055;SDS011;72881;43.514;1.510;2023-11-21T13:51:35;2.33;;;1.10;;
83055;SDS011;72881;43.514;1.510;2023-11-21T13:54:06;1.50;;;0.90;;
83055;SDS011;72881;43.514;1.510;2023-11-21T13:56:35;2.42;;;1.20;;
83055;SDS011;72881;43.514;1.510;2023-11-21T13:59:00;3.88;;;1.30;;
83055;SDS011;72881;43.514;1.510;2023-11-21T14:01:34;2.08;;;1.20;;
83055;SDS011;72881;43.514;1.510;2023-11-21T14:04:32;3.28;;;1.00;;
83055;SDS011;72881;43.514;1.510;2023-11-21T14:06:57;3.53;;;1.17;;
83055;SDS011;72881;43.514;1.510;2023-11-21T14:09:25;1.80;;;1.05;;
83055;SDS011;72881;43.514;1.510;2023-11-21T14:11:57;3.13;;;1.50;;
83055;SDS011;72881;43.514;1.510;2023-11-21T14:14:24;4.78;;;2.15;;
83055;SDS011;72881;43.514;1.510;2023-11-21T14:16:51;3.95;;;1.65;;
83055;SDS011;72881;43.514;1.510;2023-11-21T14:19:17;3.55;;;1.60;;
83055;SDS011;72881;43.514;1.510;2023-11-21T14:21:43;3.88;;;1.55;;
83055;SDS011;72881;43.514;1.510;2023-11-21T14:24:09;3.45;;;2.00;;
83055;SDS011;72881;43.514;1.510;2023-11-21T14:26:34;3.38;;;2.00;;
83055;SDS011;72881;43.514;1.510;2023-11-21T14:29:00;3.83;;;2.10;;
83055;SDS011;72881;43.514;1.510;2023-11-21T14:31:26;4.03;;;2.15;;
83055;SDS011;72881;43.514;1.510;2023-11-21T14:33:52;3.38;;;1.40;;
83055;SDS011;72881;43.514;1.510;2023-11-21T14:36:18;3.65;;;1.63;;
83055;SDS011;72881;43.514;1.510;2023-11-21T14:38:43;4.00;;;2.17;;
83055;SDS011;72881;43.514;1.510;2023-11-21T14:41:09;2.97;;;1.83;;
83055;SDS011;72881;43.514;1.510;2023-11-21T14:43:36;5.80;;;1.48;;
83055;SDS011;72881;43.514;1.510;2023-11-21T14:46:03;3.47;;;1.55;;
83055;SDS011;72881;43.514;1.510;2023-11-21T14:48:31;3.10;;;1.55;;
83055;SDS011;72881;43.514;1.510;2023-11-21T14:51:07;5.95;;;2.00;;
83055;SDS011;72881;43.514;1.510;2023-11-21T14:53:36;5.93;;;2.10;;
83055;SDS011;72881;43.514;1.510;2023-11-21T14:56:20;4.50;;;2.05;;
83055;SDS011;72881;43.514;1.510;2023-11-21T14:58:56;2.90;;;1.92;;
83055;SDS011;72881;43.514;1.510;2023-11-21T15:01:23;4.15;;;1.95;;
83055;SDS011;72881;43.514;1.510;2023-11-21T15:04:07;3.15;;;1.83;;